createdAt,value
2018-07-24T00:01:29.187Z,1.67
2018-07-24T00:04:25.386Z,1.86
2018-07-24T00:07:21.360Z,3.36
2018-07-24T00:10:17.731Z,2.40
2018-07-24T00:13:13.966Z,2.32
2018-07-24T00:16:10.039Z,2.50
2018-07-24T00:19:06.120Z,2.27
2018-07-24T00:22:02.620Z,2.20
2018-07-24T00:24:59.491Z,2.40
2018-07-24T00:27:55.847Z,2.15
2018-07-24T00:30:51.666Z,1.95
2018-07-24T00:33:47.730Z,2.71
2018-07-24T00:36:44.095Z,2.11
2018-07-24T00:39:40.180Z,2.47
2018-07-24T00:42:36.545Z,2.40
2018-07-24T00:45:32.677Z,2.68
2018-07-24T00:48:29.059Z,2.51
2018-07-24T00:51:25.099Z,2.23
2018-07-24T00:54:21.254Z,2.42
2018-07-24T00:57:17.327Z,2.75
2018-07-24T01:00:13.379Z,2.59
2018-07-24T01:03:09.575Z,2.22
2018-07-24T01:06:05.685Z,2.52
2018-07-24T01:09:02.092Z,2.07
2018-07-24T01:11:58.668Z,2.04
2018-07-24T01:14:55.527Z,2.00
2018-07-24T01:17:52.303Z,2.17
2018-07-24T01:20:48.690Z,2.55
2018-07-24T01:23:44.929Z,2.14
2018-07-24T01:26:41.295Z,2.43
2018-07-24T01:29:37.383Z,2.32
2018-07-24T01:32:33.474Z,2.75
2018-07-24T01:35:29.960Z,1.90
2018-07-24T01:38:26.025Z,2.50
2018-07-24T01:41:22.150Z,2.30
2018-07-24T01:44:19.289Z,2.52
2018-07-24T01:47:15.679Z,2.05
2018-07-24T01:50:11.775Z,1.99
2018-07-24T01:53:08.263Z,2.10
2018-07-24T01:56:04.354Z,2.61
2018-07-24T01:59:00.724Z,2.02
2018-07-24T02:01:56.830Z,2.33
2018-07-24T02:04:53.301Z,2.28
2018-07-24T02:07:49.413Z,2.43
2018-07-24T02:10:45.881Z,2.02
2018-07-24T02:13:42.395Z,2.09
2018-07-24T02:16:38.483Z,2.15
2018-07-24T02:19:34.873Z,3.98
2018-07-24T02:22:30.939Z,2.49
2018-07-24T02:25:27.340Z,1.95
2018-07-24T02:28:23.417Z,2.52
2018-07-24T02:31:19.806Z,2.28
2018-07-24T02:34:15.946Z,2.95
2018-07-24T02:37:12.337Z,3.23
2018-07-24T02:40:08.416Z,2.67
2018-07-24T02:43:04.840Z,2.88
2018-07-24T02:46:00.921Z,2.69
2018-07-24T02:48:57.025Z,2.22
2018-07-24T02:51:53.025Z,2.42
2018-07-24T02:54:49.159Z,2.00
2018-07-24T02:57:45.225Z,2.62
2018-07-24T03:00:41.036Z,3.23
2018-07-24T03:03:37.116Z,3.07
2018-07-24T03:06:33.204Z,2.66
2018-07-24T03:09:29.633Z,2.82
2018-07-24T03:12:25.960Z,3.49
2018-07-24T03:15:22.375Z,2.40
2018-07-24T03:18:18.474Z,3.11
2018-07-24T03:21:14.864Z,2.52
2018-07-24T03:24:11.451Z,2.16
2018-07-24T03:27:07.974Z,2.70
2018-07-24T03:30:04.751Z,3.12
2018-07-24T03:33:01.522Z,2.62
2018-07-24T03:35:58.016Z,4.65
2018-07-24T03:38:54.067Z,3.46
2018-07-24T03:41:50.468Z,2.65
2018-07-24T03:44:46.633Z,2.69
2018-07-24T03:47:42.719Z,2.81
2018-07-24T03:50:39.077Z,2.88
2018-07-24T03:53:35.222Z,2.80
2018-07-24T03:56:31.606Z,2.62
2018-07-24T03:59:28.147Z,3.58
2018-07-24T04:02:25.019Z,3.10
2018-07-24T04:05:21.591Z,2.94
2018-07-24T04:08:18.313Z,3.61
2018-07-24T04:11:14.838Z,3.49
2018-07-24T04:14:11.716Z,2.56
2018-07-24T04:17:08.117Z,3.57
2018-07-24T04:20:04.191Z,2.53
2018-07-24T04:23:00.564Z,2.53
2018-07-24T04:25:56.634Z,2.58
2018-07-24T04:28:52.699Z,2.93
2018-07-24T04:32:08.143Z,2.72
2018-07-24T04:35:04.962Z,2.77
2018-07-24T04:38:01.132Z,4.05
2018-07-24T04:40:57.545Z,3.36
2018-07-24T04:43:53.774Z,3.06
2018-07-24T04:46:50.072Z,2.66
2018-07-24T04:49:46.441Z,3.81
2018-07-24T04:52:42.244Z,2.84
2018-07-24T04:55:37.987Z,2.87
2018-07-24T04:58:33.973Z,3.62
2018-07-24T05:01:30.359Z,2.95
2018-07-24T05:04:26.502Z,3.06
2018-07-24T05:07:22.912Z,5.48
2018-07-24T05:10:19.613Z,5.44
2018-07-24T05:13:16.510Z,3.59
2018-07-24T05:16:12.911Z,3.32
2018-07-24T05:19:11.712Z,3.48
2018-07-24T05:22:08.176Z,3.63
2018-07-24T05:25:05.077Z,3.24
2018-07-24T05:28:01.566Z,3.79
2018-07-24T05:30:58.383Z,4.17
2018-07-24T05:33:54.870Z,3.12
2018-07-24T05:36:50.937Z,3.30
2018-07-24T05:39:47.309Z,3.24
2018-07-24T05:42:43.407Z,2.87
2018-07-24T05:45:39.504Z,4.39
2018-07-24T05:48:35.892Z,3.51
2018-07-24T05:51:32.704Z,4.17
2018-07-24T05:54:29.307Z,2.70
2018-07-24T05:57:25.358Z,3.14
2018-07-24T06:00:22.523Z,5.48
2018-07-24T06:03:18.942Z,4.31
2018-07-24T06:06:15.028Z,4.23
2018-07-24T06:09:11.164Z,2.85
2018-07-24T06:12:07.615Z,2.15
2018-07-24T06:15:04.508Z,2.75
2018-07-24T06:18:00.925Z,4.18
2018-07-24T06:20:56.995Z,3.93
2018-07-24T06:23:53.548Z,3.79
2018-07-24T06:26:49.785Z,2.88
2018-07-24T06:29:45.932Z,4.43
2018-07-24T06:44:31.641Z,3.82
2018-07-24T06:47:28.169Z,5.27
2018-07-24T06:50:24.553Z,3.36
2018-07-24T06:53:20.442Z,6.50
2018-07-24T06:56:16.442Z,3.58
2018-07-24T06:59:13.044Z,3.49
2018-07-24T07:02:09.373Z,4.03
2018-07-24T07:05:05.905Z,6.56
2018-07-24T07:08:01.946Z,4.71
2018-07-24T07:10:58.650Z,5.09
2018-07-24T07:13:58.170Z,6.38
2018-07-24T07:16:54.416Z,5.83
2018-07-24T07:19:51.119Z,3.44
2018-07-24T07:22:47.529Z,3.35
2018-07-24T07:25:44.705Z,3.30
2018-07-24T07:28:40.809Z,7.54
2018-07-24T07:31:37.583Z,7.69
2018-07-24T07:34:33.822Z,7.03
2018-07-24T07:37:30.556Z,7.32
2018-07-24T07:40:26.974Z,5.47
2018-07-24T07:43:24.145Z,4.23
2018-07-24T07:46:20.895Z,4.13
2018-07-24T07:49:17.617Z,5.15
2018-07-24T07:52:14.087Z,3.34
2018-07-24T07:55:11.585Z,3.45
2018-07-24T07:58:08.254Z,4.55
2018-07-24T08:01:04.978Z,4.63
2018-07-24T08:04:01.394Z,5.65
2018-07-24T08:06:57.451Z,3.91
2018-07-24T08:09:54.315Z,3.36
2018-07-24T08:12:50.732Z,3.39
2018-07-24T08:15:46.858Z,3.32
2018-07-24T08:18:43.571Z,5.02
2018-07-24T08:21:40.366Z,3.51
2018-07-24T08:24:38.076Z,5.21
2018-07-24T08:27:34.763Z,5.31
2018-07-24T08:30:31.119Z,4.81
2018-07-24T08:33:27.591Z,4.26
2018-07-24T08:36:23.967Z,3.15
2018-07-24T08:39:20.683Z,5.38
2018-07-24T08:42:17.335Z,6.09
2018-07-24T08:45:16.150Z,3.88
2018-07-24T08:48:12.841Z,6.36
2018-07-24T08:51:09.514Z,4.91
2018-07-24T08:54:06.070Z,3.05
2018-07-24T08:57:02.635Z,5.55
2018-07-24T08:59:59.066Z,3.79
2018-07-24T09:02:55.191Z,4.85
2018-07-24T09:05:51.831Z,4.10
2018-07-24T09:08:48.217Z,3.29
2018-07-24T09:11:44.917Z,4.54
2018-07-24T09:14:41.647Z,3.94
2018-07-24T09:17:37.756Z,5.56
2018-07-24T09:20:34.396Z,4.46
2018-07-24T09:23:31.100Z,4.56
2018-07-24T09:26:27.895Z,4.46
2018-07-24T09:29:24.339Z,3.27
2018-07-24T09:32:21.028Z,3.27
2018-07-24T09:35:17.774Z,5.90
2018-07-24T09:38:14.164Z,4.62
2018-07-24T09:41:10.378Z,3.34
2018-07-24T09:44:07.043Z,6.12
2018-07-24T09:47:03.454Z,2.97
2018-07-24T09:50:00.054Z,7.72
2018-07-24T09:52:56.130Z,7.52
2018-07-24T09:55:52.205Z,3.89
2018-07-24T09:58:48.671Z,3.73
2018-07-24T10:01:44.776Z,3.06
2018-07-24T10:04:41.617Z,3.58
2018-07-24T10:07:38.054Z,3.06
2018-07-24T10:10:34.901Z,3.18
2018-07-24T10:13:31.286Z,4.44
2018-07-24T10:16:27.440Z,6.56
2018-07-24T10:19:23.531Z,3.18
2018-07-24T10:22:19.816Z,5.01
2018-07-24T10:25:19.820Z,2.96
2018-07-24T10:28:16.107Z,3.02
2018-07-24T10:31:13.059Z,3.27
2018-07-24T10:34:09.289Z,2.56
2018-07-24T10:37:06.676Z,3.29
2018-07-24T10:40:03.186Z,3.50
2018-07-24T10:42:59.291Z,3.31
2018-07-24T10:45:55.363Z,2.51
2018-07-24T10:48:51.444Z,3.16
2018-07-24T10:51:48.194Z,2.75
2018-07-24T10:54:44.026Z,3.56
2018-07-24T10:57:40.359Z,3.02
2018-07-24T11:00:37.308Z,3.33
2018-07-24T11:03:33.215Z,2.44
2018-07-24T11:06:29.553Z,2.87
2018-07-24T11:09:25.954Z,3.22
2018-07-24T11:12:22.147Z,3.34
2018-07-24T11:15:18.287Z,3.11
2018-07-24T11:18:14.894Z,2.38
2018-07-24T11:21:11.175Z,2.86
2018-07-24T11:24:07.800Z,2.60
2018-07-24T11:27:04.154Z,3.26
2018-07-24T11:30:00.222Z,5.06
2018-07-24T11:32:56.155Z,2.40
2018-07-24T11:35:52.660Z,2.73
2018-07-24T11:38:48.915Z,2.59
2018-07-24T11:41:45.060Z,2.71
2018-07-24T11:44:41.045Z,3.86
2018-07-24T11:47:37.152Z,4.48
2018-07-24T11:50:33.313Z,1.79
2018-07-24T11:53:30.107Z,3.04
2018-07-24T11:56:27.063Z,2.17
2018-07-24T11:59:23.184Z,2.01
2018-07-24T12:02:20.046Z,2.00
2018-07-24T12:05:16.479Z,2.49
2018-07-24T12:08:13.274Z,2.40
2018-07-24T12:11:10.112Z,2.36
2018-07-24T12:14:06.259Z,2.80
2018-07-24T12:17:03.126Z,3.04
2018-07-24T12:19:59.515Z,2.39
2018-07-24T12:22:56.252Z,2.92
2018-07-24T12:25:52.658Z,2.11
2018-07-24T12:28:48.771Z,3.32
2018-07-24T12:31:45.669Z,2.43
2018-07-24T12:34:42.513Z,4.57
2018-07-24T12:37:38.583Z,2.04
2018-07-24T12:40:34.982Z,3.65
2018-07-24T12:43:31.854Z,1.92
2018-07-24T12:46:28.687Z,2.15
2018-07-24T12:49:25.088Z,1.99
2018-07-24T12:52:21.309Z,2.55
2018-07-24T12:55:18.159Z,2.31
2018-07-24T12:58:14.912Z,3.95
2018-07-24T13:01:11.353Z,3.05
2018-07-24T13:04:07.717Z,2.21
2018-07-24T13:07:04.121Z,3.34
2018-07-24T13:10:00.229Z,5.58
2018-07-24T13:12:56.926Z,3.20
2018-07-24T13:15:53.283Z,2.34
2018-07-24T13:18:49.108Z,4.60
2018-07-24T13:21:45.155Z,2.51
2018-07-24T13:24:41.314Z,2.75
2018-07-24T13:27:37.691Z,3.36
2018-07-24T13:30:33.773Z,2.73
2018-07-24T13:33:30.537Z,2.22
2018-07-24T13:36:26.917Z,1.74
2018-07-24T13:39:23.041Z,2.74
2018-07-24T13:42:19.780Z,2.11
2018-07-24T13:45:16.161Z,1.83
2018-07-24T13:48:12.925Z,2.11
2018-07-24T13:51:09.663Z,2.81
2018-07-24T13:54:05.792Z,2.31
2018-07-24T13:57:01.979Z,2.40
2018-07-24T13:59:58.408Z,1.60
2018-07-24T14:02:54.807Z,1.98
2018-07-24T14:05:51.001Z,2.34
2018-07-24T14:08:47.797Z,1.91
2018-07-24T14:11:44.482Z,1.78
2018-07-24T14:14:40.593Z,1.78
2018-07-24T14:17:37.321Z,1.70
2018-07-24T14:20:33.682Z,1.25
2018-07-24T14:23:29.797Z,2.11
2018-07-24T14:26:25.900Z,2.12
2018-07-24T14:29:21.973Z,1.60
2018-07-24T14:32:18.716Z,2.50
2018-07-24T14:35:15.115Z,1.43
2018-07-24T14:38:11.829Z,2.12
2018-07-24T14:41:08.323Z,1.64
2018-07-24T14:44:04.150Z,1.88
2018-07-24T14:47:00.427Z,1.73
2018-07-24T14:49:56.514Z,2.28
2018-07-24T14:52:52.611Z,1.60
2018-07-24T14:55:48.778Z,1.77
2018-07-24T14:58:45.649Z,1.64
2018-07-24T15:01:42.447Z,1.76
2018-07-24T15:04:38.856Z,2.75
2018-07-24T15:07:35.083Z,1.95
2018-07-24T15:10:31.867Z,1.81
2018-07-24T15:13:28.767Z,1.66
2018-07-24T15:16:25.151Z,1.68
2018-07-24T15:19:21.493Z,1.89
2018-07-24T15:22:17.590Z,1.70
2018-07-24T15:25:14.497Z,2.21
2018-07-24T15:28:11.301Z,1.90
2018-07-24T15:31:07.688Z,2.29
2018-07-24T15:34:04.085Z,3.91
2018-07-24T15:37:00.567Z,1.86
2018-07-24T15:39:56.599Z,1.93
2018-07-24T15:42:52.771Z,2.00
2018-07-24T15:45:49.209Z,1.86
2018-07-24T15:48:45.588Z,1.69
2018-07-24T15:51:41.765Z,2.34
2018-07-24T15:54:37.637Z,2.11
2018-07-24T15:57:33.841Z,1.77
2018-07-24T16:00:29.779Z,1.70
2018-07-24T16:03:25.779Z,2.02
2018-07-24T16:06:21.913Z,1.78
2018-07-24T16:09:17.983Z,2.61
2018-07-24T16:12:14.086Z,2.44
2018-07-24T16:15:10.277Z,2.82
2018-07-24T16:18:06.346Z,2.46
2018-07-24T16:21:03.070Z,2.13
2018-07-24T16:23:59.439Z,1.49
2018-07-24T16:26:55.598Z,1.77
2018-07-24T16:29:52.405Z,1.67
2018-07-24T16:32:48.946Z,1.91
2018-07-24T16:35:44.982Z,1.60
2018-07-24T16:38:41.431Z,1.64
2018-07-24T16:41:37.722Z,1.47
2018-07-24T16:44:34.834Z,2.27
2018-07-24T16:47:30.933Z,2.17
2018-07-24T16:50:27.784Z,2.44
2018-07-24T16:53:24.113Z,1.89
2018-07-24T16:56:20.557Z,1.63
2018-07-24T16:59:16.625Z,2.07
2018-07-24T17:02:12.820Z,2.77
2018-07-24T17:05:09.263Z,1.94
2018-07-24T17:08:05.368Z,1.92
2018-07-24T17:11:01.490Z,1.90
2018-07-24T17:13:57.991Z,1.82
2018-07-24T17:16:54.363Z,1.86
2018-07-24T17:19:51.150Z,2.20
2018-07-24T17:22:47.157Z,1.73
2018-07-24T17:25:43.354Z,2.75
2018-07-24T17:28:40.184Z,1.60
2018-07-24T17:31:36.930Z,1.25
2018-07-24T17:34:33.039Z,1.88
2018-07-24T17:37:29.118Z,1.70
2018-07-24T17:40:25.919Z,1.73
2018-07-24T17:43:22.337Z,1.75
2018-07-24T17:46:19.211Z,1.96
2018-07-24T17:49:16.100Z,2.00
2018-07-24T17:52:12.863Z,1.37
2018-07-24T17:55:09.318Z,1.50
2018-07-24T17:58:05.784Z,1.76
2018-07-24T18:01:01.929Z,2.01
2018-07-24T18:03:57.940Z,2.49
2018-07-24T18:06:54.797Z,2.28
2018-07-24T18:09:50.908Z,2.66
2018-07-24T18:12:46.978Z,3.54
2018-07-24T18:15:43.889Z,2.49
2018-07-24T18:18:40.680Z,2.19
2018-07-24T18:21:36.786Z,2.02
2018-07-24T18:24:34.749Z,1.70
2018-07-24T18:27:31.610Z,2.08
2018-07-24T18:30:28.032Z,1.94
2018-07-24T18:33:24.451Z,1.37
2018-07-24T18:36:20.535Z,1.63
2018-07-24T18:39:16.648Z,4.44
2018-07-24T18:42:13.405Z,3.13
2018-07-24T18:45:09.985Z,2.59
2018-07-24T18:48:06.259Z,3.00
2018-07-24T18:51:02.335Z,3.82
2018-07-24T18:53:58.422Z,4.86
2018-07-24T18:56:54.887Z,3.11
2018-07-24T18:59:51.289Z,3.62
2018-07-24T19:02:47.776Z,2.86
2018-07-24T19:05:43.919Z,2.91
2018-07-24T19:08:40.530Z,2.21
2018-07-24T19:11:36.628Z,3.98
2018-07-24T19:14:35.426Z,5.25
2018-07-24T19:17:31.818Z,4.05
2018-07-24T19:20:28.536Z,3.10
2018-07-24T19:23:27.375Z,2.40
2018-07-24T19:26:23.473Z,2.40
2018-07-24T19:29:19.564Z,3.68
2018-07-24T19:32:16.015Z,2.16
2018-07-24T19:35:12.174Z,4.50
2018-07-24T19:38:08.670Z,3.61
2018-07-24T19:41:04.745Z,1.83
2018-07-24T19:44:02.702Z,4.52
2018-07-24T19:46:59.367Z,2.56
2018-07-24T19:49:55.737Z,3.03
2018-07-24T19:52:51.824Z,3.71
2018-07-24T19:55:47.921Z,2.73
2018-07-24T19:58:44.308Z,2.31
2018-07-24T20:01:40.382Z,2.37
2018-07-24T20:04:37.182Z,3.60
2018-07-24T20:07:33.277Z,5.07
2018-07-24T20:10:48.871Z,2.71
2018-07-24T20:13:44.992Z,2.32
2018-07-24T20:16:41.514Z,2.06
2018-07-24T20:19:37.615Z,2.75
2018-07-24T20:22:33.698Z,3.56
2018-07-24T20:25:30.331Z,2.56
2018-07-24T20:28:27.182Z,3.14
2018-07-24T20:31:23.297Z,2.15
2018-07-24T20:34:19.555Z,2.37
2018-07-24T20:37:15.875Z,2.14
2018-07-24T20:40:11.972Z,3.43
2018-07-24T20:43:08.777Z,2.90
2018-07-24T20:46:05.685Z,5.24
2018-07-24T20:49:02.957Z,2.15
2018-07-24T20:51:59.331Z,3.19
2018-07-24T20:54:55.453Z,3.85
2018-07-24T20:57:52.150Z,2.02
2018-07-24T21:00:48.202Z,2.56
2018-07-24T21:03:45.067Z,2.59
2018-07-24T21:06:41.918Z,3.27
2018-07-24T21:09:38.797Z,2.39
2018-07-24T21:12:35.277Z,2.23
2018-07-24T21:15:31.416Z,2.67
2018-07-24T21:18:27.949Z,4.04
2018-07-24T21:21:24.531Z,1.79
2018-07-24T21:24:20.938Z,3.11
2018-07-24T21:27:17.047Z,2.59
2018-07-24T21:30:13.765Z,3.23
2018-07-24T21:33:09.961Z,2.06
2018-07-24T21:36:06.343Z,1.42
2018-07-24T21:39:02.429Z,2.72
2018-07-24T21:41:59.249Z,2.25
2018-07-24T21:44:57.148Z,1.60
2018-07-24T21:47:53.927Z,2.60
2018-07-24T21:50:50.815Z,2.80
2018-07-24T21:53:47.788Z,1.63
2018-07-24T21:56:44.209Z,1.47
2018-07-24T21:59:40.590Z,2.15
2018-07-24T22:02:36.664Z,1.76
2018-07-24T22:05:33.114Z,1.88
2018-07-24T22:08:29.497Z,1.61
2018-07-24T22:11:25.566Z,2.10
2018-07-24T22:14:22.611Z,2.32
2018-07-24T22:17:19.289Z,1.36
2018-07-24T22:20:16.100Z,1.51
2018-07-24T22:23:12.227Z,3.67
2018-07-24T22:26:08.613Z,1.60
2018-07-24T22:29:04.499Z,1.49
2018-07-24T22:32:00.522Z,1.27
2018-07-24T22:34:56.970Z,1.70
2018-07-24T22:37:53.050Z,1.73
2018-07-24T22:40:49.791Z,1.81
2018-07-24T22:43:46.305Z,1.47
2018-07-24T22:46:42.666Z,1.36
2018-07-24T22:49:39.348Z,1.21
2018-07-24T22:52:35.884Z,1.26
2018-07-24T22:55:32.006Z,1.67
2018-07-24T22:58:28.398Z,1.20
2018-07-24T23:01:24.687Z,1.37
2018-07-24T23:04:22.148Z,1.23
2018-07-24T23:07:18.264Z,1.40
2018-07-24T23:10:14.345Z,1.34
2018-07-24T23:13:10.852Z,1.24
2018-07-24T23:16:07.632Z,1.21
2018-07-24T23:19:04.553Z,1.37
2018-07-24T23:22:01.347Z,1.60
2018-07-24T23:24:58.237Z,1.21
2018-07-24T23:27:55.072Z,1.20
2018-07-24T23:30:51.813Z,1.23
2018-07-24T23:33:48.429Z,1.83
2018-07-24T23:36:44.713Z,1.25
2018-07-24T23:39:41.176Z,1.01
2018-07-24T23:42:37.543Z,1.30
2018-07-24T23:45:33.940Z,1.03
2018-07-24T23:48:30.743Z,1.21
2018-07-24T23:51:27.312Z,1.33
2018-07-24T23:54:23.637Z,1.35
2018-07-24T23:57:20.104Z,1.46
